createdAt,value
2023-06-04T00:03:43.279Z,3.83
2023-06-04T00:08:45.267Z,3.42
2023-06-04T00:13:47.049Z,3.33
2023-06-04T00:18:48.721Z,3.10
2023-06-04T00:23:50.654Z,3.83
2023-06-04T00:28:52.340Z,3.08
2023-06-04T00:33:54.095Z,3.63
2023-06-04T00:38:55.824Z,4.03
2023-06-04T00:43:57.707Z,3.53
2023-06-04T00:48:59.935Z,3.40
2023-06-04T00:54:09.817Z,2.97
2023-06-04T00:59:12.065Z,2.75
2023-06-04T01:04:22.067Z,2.35
2023-06-04T01:09:24.154Z,2.80
2023-06-04T01:14:27.048Z,2.20
2023-06-04T01:19:45.514Z,3.05
2023-06-04T01:24:54.109Z,2.50
2023-06-04T01:29:58.073Z,3.25
2023-06-04T01:35:00.632Z,3.47
2023-06-04T01:40:02.377Z,2.42
2023-06-04T01:45:04.545Z,2.90
2023-06-04T01:50:10.390Z,3.35
2023-06-04T01:55:15.462Z,2.58
2023-06-04T02:00:17.621Z,3.63
2023-06-04T02:05:19.567Z,2.60
2023-06-04T02:10:21.705Z,4.15
2023-06-04T02:15:24.831Z,3.70
2023-06-04T02:20:28.144Z,3.45
2023-06-04T02:25:30.158Z,2.75
2023-06-04T02:30:32.929Z,2.80
2023-06-04T02:35:34.586Z,5.38
2023-06-04T02:40:36.252Z,5.55
2023-06-04T02:45:37.988Z,3.95
2023-06-04T02:50:40.420Z,5.20
2023-06-04T02:55:42.918Z,5.25
2023-06-04T03:00:44.645Z,6.18
2023-06-04T03:05:47.461Z,4.47
2023-06-04T03:10:49.108Z,6.65
2023-06-04T03:15:50.802Z,5.50
2023-06-04T03:20:52.531Z,5.45
2023-06-04T03:25:54.215Z,3.70
2023-06-04T03:30:56.701Z,3.50
2023-06-04T03:36:00.912Z,4.72
2023-06-04T03:41:02.701Z,6.95
2023-06-04T03:46:04.506Z,4.20
2023-06-04T03:51:07.345Z,3.88
2023-06-04T03:56:09.879Z,2.88
2023-06-04T04:01:12.065Z,2.75
2023-06-04T04:06:13.866Z,2.33
2023-06-04T04:11:17.100Z,2.97
2023-06-04T04:16:19.056Z,2.53
2023-06-04T04:21:22.111Z,3.17
2023-06-04T04:26:28.577Z,2.30
2023-06-04T04:31:32.163Z,3.47
2023-06-04T04:36:36.088Z,2.03
2023-06-04T04:41:39.148Z,2.72
2023-06-04T04:46:41.290Z,2.50
2023-06-04T04:51:43.115Z,2.03
2023-06-04T04:56:45.128Z,1.90
2023-06-04T05:01:47.290Z,2.05
2023-06-04T05:06:49.175Z,2.10
2023-06-04T05:11:51.128Z,1.50
2023-06-04T05:16:53.016Z,2.47
2023-06-04T05:21:56.139Z,1.88
2023-06-04T05:26:58.440Z,1.50
2023-06-04T05:32:01.626Z,2.15
2023-06-04T05:37:05.660Z,1.80
2023-06-04T05:42:08.042Z,1.77
2023-06-04T05:47:10.603Z,1.40
2023-06-04T05:52:13.183Z,1.77
2023-06-04T05:57:17.022Z,1.35
2023-06-04T06:02:18.996Z,1.65
2023-06-04T06:07:21.241Z,1.60
2023-06-04T06:12:23.145Z,1.83
2023-06-04T06:17:25.242Z,1.67
2023-06-04T06:22:28.425Z,1.48
2023-06-04T06:27:30.338Z,1.95
2023-06-04T06:32:32.257Z,1.63
2023-06-04T06:37:33.986Z,2.00
2023-06-04T06:42:35.754Z,1.63
2023-06-04T06:47:37.432Z,1.70
2023-06-04T06:52:39.845Z,1.60
2023-06-04T06:57:41.668Z,1.65
2023-06-04T07:02:43.577Z,1.65
2023-06-04T07:07:45.453Z,2.25
2023-06-04T07:12:47.136Z,1.80
2023-06-04T07:17:49.466Z,1.98
2023-06-04T07:22:51.249Z,2.50
2023-06-04T07:27:52.945Z,2.28
2023-06-04T07:32:54.701Z,2.30
2023-06-04T07:37:56.396Z,1.60
2023-06-04T07:42:58.086Z,1.73
2023-06-04T07:47:59.876Z,1.70
2023-06-04T07:53:01.587Z,1.25
2023-06-04T07:58:05.351Z,1.40
2023-06-04T08:03:08.204Z,1.02
2023-06-04T08:08:10.006Z,1.38
2023-06-04T08:13:11.685Z,1.15
2023-06-04T08:18:13.353Z,0.80
2023-06-04T08:23:15.032Z,0.82
2023-06-04T08:28:16.999Z,1.60
2023-06-04T08:33:18.767Z,0.90
2023-06-04T08:38:20.609Z,1.02
2023-06-04T08:43:22.640Z,1.30
2023-06-04T08:48:25.963Z,0.82
2023-06-04T08:53:27.749Z,1.00
2023-06-04T08:58:34.319Z,1.20
2023-06-04T09:03:38.388Z,1.02
2023-06-04T09:08:43.961Z,0.77
2023-06-04T09:13:48.605Z,0.90
2023-06-04T09:18:50.906Z,1.20
2023-06-04T09:23:52.694Z,0.77
2023-06-04T09:28:56.532Z,0.93
2023-06-04T09:33:58.184Z,1.05
2023-06-04T09:39:00.169Z,0.88
2023-06-04T09:44:05.327Z,1.00
2023-06-04T09:49:07.428Z,0.98
2023-06-04T09:54:09.104Z,0.73
2023-06-04T09:59:11.300Z,0.75
2023-06-04T10:04:14.672Z,0.80
2023-06-04T10:09:17.469Z,0.90
2023-06-04T10:14:41.484Z,1.20
2023-06-04T10:19:45.063Z,1.17
2023-06-04T10:24:47.900Z,1.20
2023-06-04T10:29:51.410Z,0.80
2023-06-04T10:34:53.136Z,1.10
2023-06-04T10:39:56.604Z,0.85
2023-06-04T10:44:58.642Z,1.00
2023-06-04T10:50:12.600Z,1.30
2023-06-04T10:55:14.305Z,0.95
2023-06-04T11:00:17.582Z,1.05
2023-06-04T11:05:19.790Z,0.90
2023-06-04T11:10:33.898Z,1.20
2023-06-04T11:15:49.886Z,1.00
2023-06-04T11:21:00.950Z,1.00
2023-06-04T11:26:02.672Z,1.60
2023-06-04T11:31:05.025Z,1.05
2023-06-04T11:36:06.777Z,1.00
2023-06-04T11:41:08.603Z,1.10
2023-06-04T11:46:10.995Z,1.05
2023-06-04T11:51:14.029Z,0.93
2023-06-04T11:56:16.776Z,1.05
2023-06-04T12:01:19.238Z,1.10
2023-06-04T12:06:23.849Z,1.25
2023-06-04T12:11:35.739Z,1.15
2023-06-04T12:16:37.556Z,1.35
2023-06-04T12:21:43.206Z,1.00
2023-06-04T12:26:47.509Z,1.02
2023-06-04T12:31:51.151Z,1.20
2023-06-04T12:36:52.873Z,1.00
2023-06-04T12:41:54.547Z,1.27
2023-06-04T12:46:56.302Z,1.08
2023-06-04T12:51:58.428Z,1.23
2023-06-04T12:57:00.798Z,1.33
2023-06-04T13:02:02.825Z,1.05
2023-06-04T13:07:04.590Z,1.17
2023-06-04T13:12:07.252Z,1.00
2023-06-04T13:17:21.196Z,1.30
2023-06-04T13:22:24.059Z,1.30
2023-06-04T13:27:25.711Z,1.25
2023-06-04T13:32:27.453Z,1.20
2023-06-04T13:37:29.240Z,1.33
2023-06-04T13:42:31.018Z,1.30
2023-06-04T13:47:33.429Z,1.13
2023-06-04T13:52:35.225Z,1.30
2023-06-04T13:57:36.864Z,1.40
2023-06-04T14:02:38.665Z,1.27
2023-06-04T14:07:42.901Z,1.42
2023-06-04T14:12:45.263Z,1.33
2023-06-04T14:17:48.829Z,1.25
2023-06-04T14:22:50.587Z,1.70
2023-06-04T14:27:52.431Z,1.50
2023-06-04T14:32:54.152Z,1.40
2023-06-04T14:37:55.968Z,1.20
2023-06-04T14:42:58.667Z,1.33
2023-06-04T14:48:13.998Z,1.67
2023-06-04T14:53:16.873Z,1.15
2023-06-04T14:58:18.542Z,1.33
2023-06-04T15:03:20.364Z,1.45
2023-06-04T15:08:22.184Z,1.77
2023-06-04T15:13:23.919Z,1.15
2023-06-04T15:18:25.657Z,1.30
2023-06-04T15:23:27.411Z,1.55
2023-06-04T15:28:29.104Z,1.42
2023-06-04T15:33:30.838Z,1.20
2023-06-04T15:38:33.798Z,1.23
2023-06-04T15:43:35.521Z,1.30
2023-06-04T15:48:37.212Z,1.40
2023-06-04T15:53:38.945Z,1.17
2023-06-04T15:58:40.712Z,1.30
2023-06-04T16:03:42.520Z,0.98
2023-06-04T16:08:44.246Z,1.10
2023-06-04T16:13:46.177Z,1.40
2023-06-04T16:18:48.593Z,1.10
2023-06-04T16:23:50.258Z,1.73
2023-06-04T16:28:51.980Z,1.23
2023-06-04T16:33:53.750Z,1.67
2023-06-04T16:38:55.505Z,1.13
2023-06-04T16:43:57.199Z,1.55
2023-06-04T16:48:58.853Z,1.30
2023-06-04T16:54:00.438Z,1.20
2023-06-04T16:59:02.124Z,1.38
2023-06-04T17:04:03.791Z,1.63
2023-06-04T17:09:05.490Z,1.42
2023-06-04T17:14:08.428Z,1.20
2023-06-04T17:19:10.105Z,1.58
2023-06-04T17:24:12.290Z,1.40
2023-06-04T17:29:14.102Z,1.35
2023-06-04T17:34:15.813Z,1.95
2023-06-04T17:39:17.536Z,1.25
2023-06-04T17:44:19.188Z,1.00
2023-06-04T17:49:21.000Z,1.67
2023-06-04T17:54:22.744Z,1.95
2023-06-04T17:59:24.419Z,1.50
2023-06-04T18:04:26.170Z,1.88
2023-06-04T18:09:28.127Z,1.10
2023-06-04T18:14:29.795Z,1.60
2023-06-04T18:19:31.576Z,1.65
2023-06-04T18:24:37.763Z,1.50
2023-06-04T18:29:41.133Z,1.70
2023-06-04T18:34:42.891Z,1.52
2023-06-04T18:39:44.631Z,1.20
2023-06-04T18:44:46.399Z,1.55
2023-06-04T18:49:48.121Z,1.83
2023-06-04T18:54:49.783Z,2.00
2023-06-04T18:59:51.495Z,1.88
2023-06-04T19:04:53.287Z,1.33
2023-06-04T19:09:55.296Z,1.70
2023-06-04T19:14:56.971Z,1.50
2023-06-04T19:19:58.627Z,1.63
2023-06-04T19:25:00.325Z,1.83
2023-06-04T19:30:03.369Z,1.70
2023-06-04T19:35:05.685Z,1.80
2023-06-04T19:40:08.146Z,1.92
2023-06-04T19:45:10.262Z,1.52
2023-06-04T19:50:12.382Z,1.95
2023-06-04T19:55:14.081Z,1.45
2023-06-04T20:00:16.389Z,2.22
2023-06-04T20:05:18.228Z,1.95
2023-06-04T20:10:19.944Z,1.98
2023-06-04T20:15:22.351Z,1.77
2023-06-04T20:20:24.038Z,1.98
2023-06-04T20:25:25.862Z,1.65
2023-06-04T20:30:27.547Z,1.42
2023-06-04T20:35:29.584Z,1.90
2023-06-04T20:40:31.240Z,1.60
2023-06-04T20:45:33.037Z,1.83
2023-06-04T20:50:34.716Z,1.98
2023-06-04T20:55:36.637Z,1.83
2023-06-04T21:00:38.277Z,1.83
2023-06-04T21:05:39.953Z,2.42
2023-06-04T21:10:41.717Z,2.10
2023-06-04T21:15:43.690Z,1.98
2023-06-04T21:20:45.438Z,1.95
2023-06-04T21:25:47.317Z,2.10
2023-06-04T21:30:49.044Z,2.15
2023-06-04T21:35:50.843Z,2.22
2023-06-04T21:40:52.511Z,1.85
2023-06-04T21:45:54.171Z,1.85
2023-06-04T21:50:56.370Z,2.45
2023-06-04T21:55:58.080Z,2.13
2023-06-04T22:00:59.758Z,2.40
2023-06-04T22:06:01.450Z,2.00
2023-06-04T22:11:03.152Z,1.98
2023-06-04T22:16:05.559Z,2.08
2023-06-04T22:21:07.356Z,2.50
2023-06-04T22:26:10.013Z,2.00
2023-06-04T22:31:13.822Z,2.67
2023-06-04T22:36:15.577Z,1.95
2023-06-04T22:41:17.247Z,1.98
2023-06-04T22:46:18.967Z,1.88
2023-06-04T22:51:22.205Z,2.00
2023-06-04T22:56:26.385Z,2.15
2023-06-04T23:01:28.225Z,2.10
2023-06-04T23:06:29.996Z,2.13
2023-06-04T23:11:31.664Z,2.35
2023-06-04T23:16:33.397Z,2.13
2023-06-04T23:21:35.329Z,2.50
2023-06-04T23:26:37.007Z,2.30
2023-06-04T23:31:38.726Z,2.72
2023-06-04T23:36:40.513Z,2.28
2023-06-04T23:41:42.211Z,2.45
2023-06-04T23:46:43.856Z,2.22
2023-06-04T23:51:45.521Z,2.13
2023-06-04T23:56:47.316Z,2.58
